Terminal Aerodrome Forecast
Issued by NWS Duluth, MN

Home | Current Version | Previous Version | Graphics & Text | Print | Product List | Glossary On
Versions: 1 2 3 4 5 6 7 8 9 10 11 12 13 14 15 16 17 18 19 20 21 22 23 24 25 26 27 28 29 30 31 32 33
000
FTUS43 KDLH 220300 AAA
TAFDLH
TAF AMD
KDLH 220307Z 2203/2224 14009KT 2SM BR OVC003
      TEMPO 2203/2206 3/4SM -FZDZSN BR
     FM220600 12009KT 1/2SM -DZSN FG VV002
     FM221800 10010KT 3/4SM -DZ BR OVC002=

USA.gov is the U.S. government's official web portal to all federal, state and local government web resources and services.